Time;durP1;ratioP1;P1;durP2;ratioP2;P2;SDS_P1;SDS_P2;PMS_P1;PMS_P2;Temp;Humidity;BMP_temperature;BMP_pressure;BME280_temperature;BME280_humidity;BME280_pressure;Samples;Min_cycle;Max_cycle;Signal;HPM_P1;HPM_P2
2023/08/13 00:00:33;;;;;;;8.85;3.65;;;;;;;;;;5038135;28;20084;-83
2023/08/13 00:02:58;;;;;;;5.45;3.38;;;;;;;;;;5035169;28;20070;-83
2023/08/13 00:05:23;;;;;;;6.60;3.30;;;;;;;;;;5032478;28;20044;-85
2023/08/13 00:07:49;;;;;;;5.53;3.17;;;;;;;;;;5033437;28;20029;-83
2023/08/13 00:10:15;;;;;;;5.10;3.33;;;;;;;;;;5034191;28;20041;-84
2023/08/13 00:12:40;;;;;;;5.68;2.85;;;;;;;;;;5032684;28;20044;-84
2023/08/13 00:15:06;;;;;;;6.78;3.40;;;;;;;;;;5034735;28;20084;-84
2023/08/13 00:17:31;;;;;;;6.80;3.40;;;;;;;;;;5027589;28;20022;-84
2023/08/13 00:19:57;;;;;;;4.72;3.03;;;;;;;;;;5028896;28;20057;-84
2023/08/13 00:22:22;;;;;;;4.50;3.40;;;;;;;;;;5033284;28;20040;-85
2023/08/13 00:24:49;;;;;;;5.18;3.80;;;;;;;;;;5033567;28;20111;-84
2023/08/13 00:27:15;;;;;;;5.22;3.88;;;;;;;;;;4995825;28;20045;-85
2023/08/13 00:29:40;;;;;;;6.15;3.90;;;;;;;;;;5030982;28;20029;-83
2023/08/13 00:32:06;;;;;;;6.15;3.67;;;;;;;;;;5013753;28;20556;-83
2023/08/13 00:34:31;;;;;;;8.13;4.00;;;;;;;;;;5046234;28;20029;-84
2023/08/13 00:36:57;;;;;;;7.82;3.67;;;;;;;;;;5016592;28;20438;-85
2023/08/13 00:39:22;;;;;;;7.15;3.45;;;;;;;;;;5034614;28;20037;-84
2023/08/13 00:41:48;;;;;;;6.88;3.80;;;;;;;;;;5033131;28;20048;-84
2023/08/13 00:44:13;;;;;;;7.20;3.90;;;;;;;;;;5032326;28;20131;-84
2023/08/13 00:46:39;;;;;;;5.00;3.60;;;;;;;;;;5034112;28;20477;-84
2023/08/13 00:49:05;;;;;;;5.85;3.50;;;;;;;;;;5033374;28;20041;-84
2023/08/13 00:51:30;;;;;;;8.20;3.97;;;;;;;;;;5064744;28;20025;-84
2023/08/13 00:53:56;;;;;;;6.30;3.92;;;;;;;;;;5010821;28;20057;-84
2023/08/13 00:56:21;;;;;;;6.07;3.95;;;;;;;;;;5042392;28;20028;-85
2023/08/13 00:58:48;;;;;;;5.85;3.83;;;;;;;;;;5031988;28;20025;-84
2023/08/13 01:01:14;;;;;;;4.10;3.40;;;;;;;;;;5032606;28;20156;-85
2023/08/13 01:03:40;;;;;;;5.47;3.55;;;;;;;;;;5031266;28;20037;-85
2023/08/13 01:06:09;;;;;;;5.10;3.28;;;;;;;;;;5033426;28;20029;-84
2023/08/13 01:08:34;;;;;;;5.05;3.42;;;;;;;;;;5015264;28;20440;-84
2023/08/13 01:11:05;;;;;;;5.40;3.20;;;;;;;;;;5015473;28;20079;-84
2023/08/13 01:13:33;;;;;;;5.13;3.47;;;;;;;;;;5003762;28;20525;-84
2023/08/13 01:15:58;;;;;;;3.78;2.80;;;;;;;;;;5015667;28;20524;-84
2023/08/13 01:18:24;;;;;;;4.53;2.92;;;;;;;;;;5031941;28;20032;-84
2023/08/13 01:20:49;;;;;;;6.20;3.20;;;;;;;;;;5014718;28;20089;-84
2023/08/13 01:23:15;;;;;;;5.55;2.97;;;;;;;;;;5014853;28;20037;-84
2023/08/13 01:25:41;;;;;;;5.25;3.13;;;;;;;;;;5031987;28;20071;-84
2023/08/13 01:28:08;;;;;;;4.20;3.25;;;;;;;;;;5015277;28;20033;-84
2023/08/13 01:30:47;;;;;;;3.83;2.78;;;;;;;;;;5032153;28;20076;-84
2023/08/13 01:33:13;;;;;;;4.70;2.92;;;;;;;;;;5032643;28;20067;-85
2023/08/13 01:35:39;;;;;;;4.85;2.70;;;;;;;;;;5015824;28;20029;-84
2023/08/13 01:38:04;;;;;;;5.65;2.70;;;;;;;;;;5031743;28;20479;-84
2023/08/13 01:40:30;;;;;;;5.60;2.88;;;;;;;;;;5031562;28;20037;-84
2023/08/13 01:42:55;;;;;;;4.88;2.97;;;;;;;;;;5032483;28;20575;-84
2023/08/13 01:45:21;;;;;;;6.10;3.15;;;;;;;;;;4998749;28;20025;-84
2023/08/13 01:47:46;;;;;;;8.88;3.70;;;;;;;;;;5012610;28;20124;-84
2023/08/13 01:50:12;;;;;;;5.22;3.60;;;;;;;;;;5026025;28;20048;-84
2023/08/13 01:52:38;;;;;;;5.18;3.05;;;;;;;;;;5036437;28;20040;-84
2023/08/13 01:55:05;;;;;;;7.78;3.22;;;;;;;;;;5019009;28;20034;-84
2023/08/13 01:57:30;;;;;;;6.22;2.92;;;;;;;;;;5014544;28;20157;-84
2023/08/13 01:59:57;;;;;;;6.78;3.05;;;;;;;;;;5032036;28;20466;-84
2023/08/13 02:02:23;;;;;;;6.18;2.80;;;;;;;;;;5031329;28;20072;-85
2023/08/13 02:04:49;;;;;;;4.65;3.05;;;;;;;;;;5014366;28;20075;-84
2023/08/13 02:07:15;;;;;;;3.85;2.40;;;;;;;;;;5014485;28;20124;-84
2023/08/13 02:09:42;;;;;;;5.50;3.03;;;;;;;;;;5030593;28;20029;-84
2023/08/13 02:12:07;;;;;;;4.22;2.80;;;;;;;;;;5031921;28;20033;-84
2023/08/13 02:14:34;;;;;;;5.30;2.88;;;;;;;;;;5030843;28;20044;-84
2023/08/13 02:16:59;;;;;;;6.47;3.70;;;;;;;;;;5030733;28;20037;-84
2023/08/13 02:19:25;;;;;;;4.78;3.10;;;;;;;;;;5030257;28;20526;-85
2023/08/13 02:21:51;;;;;;;6.03;2.83;;;;;;;;;;5031727;28;20036;-84
2023/08/13 02:24:16;;;;;;;8.98;2.70;;;;;;;;;;4997613;28;20412;-84
2023/08/13 02:26:42;;;;;;;4.30;2.90;;;;;;;;;;5020553;28;20044;-84
2023/08/13 02:29:07;;;;;;;5.72;3.05;;;;;;;;;;5012248;28;20032;-84
2023/08/13 02:31:33;;;;;;;4.40;2.72;;;;;;;;;;5011195;28;20048;-84
2023/08/13 02:33:58;;;;;;;6.75;3.05;;;;;;;;;;5031086;28;20029;-82
2023/08/13 02:36:23;;;;;;;6.03;3.08;;;;;;;;;;5031359;28;20407;-82
2023/08/13 02:38:49;;;;;;;4.75;2.90;;;;;;;;;;5013829;28;20036;-83
2023/08/13 02:41:15;;;;;;;4.43;2.80;;;;;;;;;;5022674;28;20151;-83
2023/08/13 02:43:53;;;;;;;5.22;2.60;;;;;;;;;;5032826;28;20068;-83
2023/08/13 02:46:19;;;;;;;6.10;3.00;;;;;;;;;;5014052;28;20034;-84
2023/08/13 02:48:45;;;;;;;4.78;2.75;;;;;;;;;;5030250;28;20021;-83
2023/08/13 02:51:11;;;;;;;7.13;3.05;;;;;;;;;;5030492;28;20447;-84
2023/08/13 02:53:37;;;;;;;5.30;2.70;;;;;;;;;;5030359;28;20040;-83
2023/08/13 02:56:02;;;;;;;5.72;2.72;;;;;;;;;;5011096;28;20030;-83
2023/08/13 02:58:28;;;;;;;9.50;2.67;;;;;;;;;;5013506;28;20049;-84
2023/08/13 03:00:54;;;;;;;5.60;2.47;;;;;;;;;;4999771;28;20036;-83
2023/08/13 03:03:19;;;;;;;8.65;2.53;;;;;;;;;;5010245;28;20025;-84
2023/08/13 03:05:45;;;;;;;5.32;2.20;;;;;;;;;;5022233;28;20595;-84
2023/08/13 03:08:10;;;;;;;3.70;2.40;;;;;;;;;;5033447;28;20416;-83
2023/08/13 03:10:36;;;;;;;7.85;2.30;;;;;;;;;;5030121;28;20042;-84
2023/08/13 03:13:01;;;;;;;3.22;2.15;;;;;;;;;;5013014;28;20032;-83
2023/08/13 03:15:27;;;;;;;3.90;2.40;;;;;;;;;;5013732;28;20055;-84
2023/08/13 03:17:53;;;;;;;3.60;1.90;;;;;;;;;;5011476;28;20018;-84
2023/08/13 03:20:18;;;;;;;5.60;2.13;;;;;;;;;;5053318;28;20520;-85
2023/08/13 03:22:44;;;;;;;3.20;1.98;;;;;;;;;;5013290;28;20029;-85
2023/08/13 03:25:10;;;;;;;6.13;2.10;;;;;;;;;;5013042;28;20041;-84
2023/08/13 03:27:35;;;;;;;2.30;1.70;;;;;;;;;;5026663;28;20111;-84
2023/08/13 03:30:01;;;;;;;4.30;2.22;;;;;;;;;;5037630;28;20037;-84
2023/08/13 03:32:28;;;;;;;4.13;2.20;;;;;;;;;;5017254;28;20021;-85
2023/08/13 03:34:54;;;;;;;3.33;2.00;;;;;;;;;;5030588;28;20496;-84
2023/08/13 03:37:20;;;;;;;3.50;1.90;;;;;;;;;;5030674;28;20032;-85
2023/08/13 03:39:45;;;;;;;4.13;1.70;;;;;;;;;;5030452;28;20033;-84
2023/08/13 03:42:11;;;;;;;3.30;1.50;;;;;;;;;;5029875;28;20061;-84
2023/08/13 03:44:36;;;;;;;4.20;1.70;;;;;;;;;;5030844;28;20144;-85
2023/08/13 03:47:04;;;;;;;3.30;1.60;;;;;;;;;;5030725;28;20436;-85
2023/08/13 03:49:30;;;;;;;3.28;1.80;;;;;;;;;;5031086;28;20573;-84
2023/08/13 03:51:55;;;;;;;3.97;1.80;;;;;;;;;;5030615;28;20018;-84
2023/08/13 03:54:21;;;;;;;6.60;1.80;;;;;;;;;;5033094;28;20033;-84
2023/08/13 03:56:46;;;;;;;2.50;1.63;;;;;;;;;;5013060;28;20025;-84
2023/08/13 03:59:12;;;;;;;2.08;1.50;;;;;;;;;;5029512;28;20566;-84
2023/08/13 04:01:38;;;;;;;3.70;1.70;;;;;;;;;;5029590;28;20392;-84
2023/08/13 04:04:04;;;;;;;3.63;1.73;;;;;;;;;;5010217;28;20037;-84
2023/08/13 04:06:30;;;;;;;3.25;1.90;;;;;;;;;;5003130;28;20060;-84
2023/08/13 04:08:55;;;;;;;3.33;1.70;;;;;;;;;;5013569;28;20456;-84
2023/08/13 04:11:21;;;;;;;2.92;1.63;;;;;;;;;;5029670;28;20027;-84
2023/08/13 04:13:46;;;;;;;6.07;1.90;;;;;;;;;;5030799;28;20128;-84
2023/08/13 04:16:12;;;;;;;3.75;1.60;;;;;;;;;;5012997;28;20033;-83
2023/08/13 04:18:38;;;;;;;3.55;1.50;;;;;;;;;;5013200;28;20530;-84
2023/08/13 04:21:03;;;;;;;6.97;2.13;;;;;;;;;;5012916;28;20140;-84
2023/08/13 04:23:29;;;;;;;3.08;1.45;;;;;;;;;;4996999;28;20038;-84
2023/08/13 04:25:55;;;;;;;2.25;1.55;;;;;;;;;;5027989;28;20017;-84
2023/08/13 04:28:20;;;;;;;2.90;1.52;;;;;;;;;;5029571;28;20033;-84
2023/08/13 04:30:46;;;;;;;1.92;1.60;;;;;;;;;;5028902;28;20025;-84
2023/08/13 04:33:13;;;;;;;2.60;1.50;;;;;;;;;;5029430;28;20040;-84
2023/08/13 04:35:39;;;;;;;3.88;1.60;;;;;;;;;;4996069;28;20029;-84
2023/08/13 04:38:04;;;;;;;2.00;1.40;;;;;;;;;;5029926;28;20034;-84
2023/08/13 04:40:35;;;;;;;5.93;1.65;;;;;;;;;;5031940;28;20369;-84
2023/08/13 04:43:01;;;;;;;2.90;1.40;;;;;;;;;;5016243;28;20043;-84
2023/08/13 04:45:27;;;;;;;3.33;1.50;;;;;;;;;;5033024;28;20025;-83
2023/08/13 04:47:53;;;;;;;2.53;1.50;;;;;;;;;;5016311;28;20473;-84
2023/08/13 04:50:18;;;;;;;5.30;1.50;;;;;;;;;;5032544;28;20116;-84
2023/08/13 04:52:44;;;;;;;2.22;1.40;;;;;;;;;;5032266;28;20043;-84
2023/08/13 04:55:13;;;;;;;3.35;1.48;;;;;;;;;;5016241;28;20029;-84
2023/08/13 04:57:41;;;;;;;2.30;1.60;;;;;;;;;;5032267;28;20033;-84
2023/08/13 05:00:08;;;;;;;5.05;2.03;;;;;;;;;;5013897;28;20049;-84
2023/08/13 05:02:38;;;;;;;1.95;1.40;;;;;;;;;;5016766;28;20041;-84
2023/08/13 05:05:04;;;;;;;5.22;1.30;;;;;;;;;;5032246;28;20496;-84
2023/08/13 05:07:30;;;;;;;2.63;1.40;;;;;;;;;;5032078;28;20041;-83
2023/08/13 05:09:56;;;;;;;4.13;1.50;;;;;;;;;;5016145;28;20075;-83
2023/08/13 05:12:21;;;;;;;2.38;1.65;;;;;;;;;;5048676;28;20040;-83
2023/08/13 05:14:47;;;;;;;2.50;1.45;;;;;;;;;;5012410;28;20014;-84
2023/08/13 05:17:17;;;;;;;3.45;1.83;;;;;;;;;;5013024;28;20484;-84
2023/08/13 05:19:43;;;;;;;2.85;1.60;;;;;;;;;;5012048;28;20050;-83
2023/08/13 05:22:09;;;;;;;3.05;1.60;;;;;;;;;;5031536;28;20048;-84
2023/08/13 05:24:34;;;;;;;2.72;1.60;;;;;;;;;;5031524;28;20037;-84
2023/08/13 05:27:00;;;;;;;5.38;2.78;;;;;;;;;;5010659;28;20030;-85
2023/08/13 05:29:25;;;;;;;3.35;1.80;;;;;;;;;;5030654;28;20028;-84
2023/08/13 05:31:51;;;;;;;3.10;1.35;;;;;;;;;;5031885;28;20485;-84
2023/08/13 05:34:16;;;;;;;3.67;1.33;;;;;;;;;;5032480;28;20036;-84
2023/08/13 05:36:42;;;;;;;3.15;1.40;;;;;;;;;;5031955;28;20049;-84
2023/08/13 05:39:09;;;;;;;4.07;1.70;;;;;;;;;;5031430;28;20110;-86
2023/08/13 05:41:34;;;;;;;1.50;1.02;;;;;;;;;;4999233;28;20042;-85
2023/08/13 05:44:01;;;;;;;1.88;1.15;;;;;;;;;;5031243;28;20473;-85
2023/08/13 05:46:26;;;;;;;2.20;1.23;;;;;;;;;;5031620;28;20033;-85
2023/08/13 05:48:52;;;;;;;3.20;1.13;;;;;;;;;;5014653;28;20075;-85
2023/08/13 05:51:18;;;;;;;1.67;1.00;;;;;;;;;;5015498;28;20458;-85
2023/08/13 05:53:43;;;;;;;2.78;0.98;;;;;;;;;;5014529;28;20492;-83
2023/08/13 05:56:09;;;;;;;2.30;0.80;;;;;;;;;;5015355;28;20044;-85
2023/08/13 05:58:34;;;;;;;1.95;0.90;;;;;;;;;;4998280;28;20044;-84
2023/08/13 06:01:00;;;;;;;3.15;0.98;;;;;;;;;;5014750;28;20120;-85
2023/08/13 06:03:25;;;;;;;0.80;0.70;;;;;;;;;;5031779;28;20060;-85
2023/08/13 06:05:51;;;;;;;1.52;0.80;;;;;;;;;;5031106;28;20038;-85
2023/08/13 06:08:17;;;;;;;2.20;0.80;;;;;;;;;;5030379;28;20071;-85
2023/08/13 06:10:43;;;;;;;2.10;1.00;;;;;;;;;;5031030;28;20120;-84
2023/08/13 06:13:08;;;;;;;3.90;0.82;;;;;;;;;;5030668;28;20105;-85
2023/08/13 06:15:34;;;;;;;1.50;0.85;;;;;;;;;;5030719;28;20408;-85
2023/08/13 06:17:59;;;;;;;1.35;0.82;;;;;;;;;;5010788;28;20022;-84
2023/08/13 06:20:25;;;;;;;1.08;0.70;;;;;;;;;;5011615;28;20049;-84
2023/08/13 06:22:50;;;;;;;0.57;0.55;;;;;;;;;;5028220;28;20539;-85
2023/08/13 06:25:16;;;;;;;1.08;0.70;;;;;;;;;;5032759;28;20044;-84
2023/08/13 06:27:41;;;;;;;1.08;0.75;;;;;;;;;;5031818;28;20030;-83
2023/08/13 06:30:07;;;;;;;1.88;0.70;;;;;;;;;;5030432;28;20045;-84
2023/08/13 06:32:33;;;;;;;1.13;0.60;;;;;;;;;;5014449;28;20492;-86
2023/08/13 06:34:59;;;;;;;1.27;0.60;;;;;;;;;;5013972;28;20033;-84
2023/08/13 06:37:24;;;;;;;2.40;0.70;;;;;;;;;;5014756;28;20025;-85
2023/08/13 06:39:50;;;;;;;1.67;0.77;;;;;;;;;;5013888;28;20045;-83
2023/08/13 06:42:16;;;;;;;0.90;0.60;;;;;;;;;;5031225;28;20045;-85
2023/08/13 06:44:42;;;;;;;2.03;0.80;;;;;;;;;;5030889;28;20033;-85
2023/08/13 06:47:08;;;;;;;2.42;0.70;;;;;;;;;;5030302;28;20028;-84
2023/08/13 06:49:33;;;;;;;1.05;0.70;;;;;;;;;;5030189;28;20045;-85
2023/08/13 06:51:59;;;;;;;1.30;0.63;;;;;;;;;;5030270;28;20448;-85
2023/08/13 06:54:24;;;;;;;0.80;0.60;;;;;;;;;;5031423;28;20033;-84
2023/08/13 06:56:50;;;;;;;0.77;0.50;;;;;;;;;;5013194;28;20026;-84
2023/08/13 06:59:15;;;;;;;0.50;0.40;;;;;;;;;;5032276;28;20075;-84
2023/08/13 07:01:41;;;;;;;3.17;0.60;;;;;;;;;;5029451;28;20025;-85
2023/08/13 07:04:06;;;;;;;3.00;2.08;;;;;;;;;;5032059;28;20148;-85
2023/08/13 07:06:32;;;;;;;1.23;0.70;;;;;;;;;;5029814;28;20065;-84
2023/08/13 07:08:57;;;;;;;1.00;0.60;;;;;;;;;;5033327;28;20515;-84
2023/08/13 07:11:23;;;;;;;1.95;0.68;;;;;;;;;;5033501;28;20116;-85
2023/08/13 07:13:50;;;;;;;0.43;0.40;;;;;;;;;;5030505;28;20489;-85
2023/08/13 07:16:16;;;;;;;0.95;0.50;;;;;;;;;;5031100;28;20032;-84
2023/08/13 07:18:43;;;;;;;1.88;0.40;;;;;;;;;;5031438;28;20033;-85
2023/08/13 07:21:08;;;;;;;0.77;0.40;;;;;;;;;;5012778;28;20512;-84
2023/08/13 07:23:35;;;;;;;1.60;0.88;;;;;;;;;;5030311;28;20136;-84
2023/08/13 07:26:01;;;;;;;1.60;0.70;;;;;;;;;;5029533;28;20528;-84
2023/08/13 07:28:26;;;;;;;1.35;0.90;;;;;;;;;;5029993;28;20512;-85
2023/08/13 07:30:52;;;;;;;1.33;0.60;;;;;;;;;;5030130;28;20488;-84
2023/08/13 07:33:17;;;;;;;1.23;0.40;;;;;;;;;;5030171;28;20033;-84
2023/08/13 07:35:42;;;;;;;1.25;0.80;;;;;;;;;;5030611;28;20014;-84
2023/08/13 07:38:08;;;;;;;1.38;0.40;;;;;;;;;;5030004;28;20037;-84
2023/08/13 07:40:34;;;;;;;0.25;0.20;;;;;;;;;;5029537;28;20120;-84
2023/08/13 07:43:02;;;;;;;1.65;0.32;;;;;;;;;;5030254;28;20037;-84
2023/08/13 07:45:29;;;;;;;0.65;0.30;;;;;;;;;;5029471;28;20551;-84
2023/08/13 07:47:55;;;;;;;0.68;0.30;;;;;;;;;;5029585;28;20065;-84
2023/08/13 07:50:20;;;;;;;0.25;0.25;;;;;;;;;;5030253;28;20060;-84
2023/08/13 07:52:46;;;;;;;0.32;0.30;;;;;;;;;;5030073;28;20038;-85
2023/08/13 07:55:11;;;;;;;0.65;0.30;;;;;;;;;;4995940;28;20014;-84
2023/08/13 07:57:37;;;;;;;0.43;0.20;;;;;;;;;;5030233;28;20478;-84
2023/08/13 08:00:05;;;;;;;0.20;0.20;;;;;;;;;;5029157;28;20404;-84
2023/08/13 08:02:37;;;;;;;0.38;0.30;;;;;;;;;;5022121;28;20119;-84
2023/08/13 08:05:05;;;;;;;0.35;0.30;;;;;;;;;;5029166;28;20049;-84
2023/08/13 08:07:31;;;;;;;0.50;0.30;;;;;;;;;;5027867;28;20030;-85
2023/08/13 08:09:56;;;;;;;0.20;0.20;;;;;;;;;;5030219;28;20029;-84
2023/08/13 08:12:25;;;;;;;0.82;0.47;;;;;;;;;;5027367;28;20080;-84
2023/08/13 08:14:53;;;;;;;1.20;0.40;;;;;;;;;;5033197;28;20498;-85
2023/08/13 08:17:19;;;;;;;0.38;0.20;;;;;;;;;;5028018;28;20063;-84
2023/08/13 08:19:44;;;;;;;1.65;0.30;;;;;;;;;;5034125;28;20045;-84
2023/08/13 08:22:10;;;;;;;1.25;0.40;;;;;;;;;;5016953;28;20080;-84
2023/08/13 08:24:35;;;;;;;2.33;0.40;;;;;;;;;;5032714;28;20037;-84
2023/08/13 08:27:01;;;;;;;0.40;0.40;;;;;;;;;;5017219;28;20025;-83
2023/08/13 08:29:26;;;;;;;0.73;0.60;;;;;;;;;;5033400;28;20029;-84
2023/08/13 08:31:55;;;;;;;1.02;0.65;;;;;;;;;;5033716;28;20053;-84
2023/08/13 08:34:21;;;;;;;2.03;0.80;;;;;;;;;;5033797;28;20107;-85
2023/08/13 08:36:47;;;;;;;1.58;0.80;;;;;;;;;;5015947;28;20029;-84
2023/08/13 08:39:16;;;;;;;1.85;1.20;;;;;;;;;;5016064;28;20037;-85
2023/08/13 08:41:46;;;;;;;1.45;1.10;;;;;;;;;;5032799;28;20041;-85
2023/08/13 08:44:30;;;;;;;1.52;0.70;;;;;;;;;;5033312;28;20073;-83
2023/08/13 08:46:55;;;;;;;0.90;0.70;;;;;;;;;;5033531;28;20488;-84
2023/08/13 08:49:24;;;;;;;1.73;0.90;;;;;;;;;;5029636;28;20036;-84
2023/08/13 08:51:50;;;;;;;1.80;0.82;;;;;;;;;;5016624;28;20044;-84
2023/08/13 08:54:15;;;;;;;1.50;0.90;;;;;;;;;;5034014;28;20034;-85
2023/08/13 08:56:41;;;;;;;0.82;0.70;;;;;;;;;;5034035;28;20029;-85
2023/08/13 08:59:06;;;;;;;1.00;0.75;;;;;;;;;;4999688;28;20025;-84
2023/08/13 09:01:32;;;;;;;0.80;0.70;;;;;;;;;;5033412;28;20048;-85
2023/08/13 09:03:57;;;;;;;0.65;0.60;;;;;;;;;;5016268;28;20030;-83
2023/08/13 09:06:23;;;;;;;1.00;0.65;;;;;;;;;;5031982;28;20048;-85
2023/08/13 09:08:49;;;;;;;0.60;0.60;;;;;;;;;;5031798;28;20021;-86
2023/08/13 09:11:14;;;;;;;0.68;0.68;;;;;;;;;;5032431;28;20037;-85
2023/08/13 09:13:49;;;;;;;0.93;0.75;;;;;;;;;;5015114;28;20026;-85
2023/08/13 09:16:15;;;;;;;0.70;0.63;;;;;;;;;;5031589;28;20377;-85
2023/08/13 09:18:40;;;;;;;1.05;0.70;;;;;;;;;;5032324;28;20079;-85
2023/08/13 09:21:11;;;;;;;0.77;0.60;;;;;;;;;;5015677;28;20155;-85
2023/08/13 09:23:39;;;;;;;1.10;0.82;;;;;;;;;;5031274;28;20040;-85
2023/08/13 09:26:04;;;;;;;0.73;0.60;;;;;;;;;;5014405;28;20088;-84
2023/08/13 09:28:30;;;;;;;1.20;0.80;;;;;;;;;;5042298;28;20032;-84
2023/08/13 09:30:58;;;;;;;1.45;0.90;;;;;;;;;;5035150;28;20691;-85
2023/08/13 09:33:24;;;;;;;1.40;0.90;;;;;;;;;;5031834;28;20492;-85
2023/08/13 09:35:49;;;;;;;2.58;1.10;;;;;;;;;;5015373;28;20025;-86
2023/08/13 09:38:15;;;;;;;2.33;1.27;;;;;;;;;;5031559;28;20121;-83
2023/08/13 09:40:40;;;;;;;1.98;1.15;;;;;;;;;;5032740;28;20108;-84
2023/08/13 09:43:09;;;;;;;4.70;1.35;;;;;;;;;;5034096;28;20152;-84
2023/08/13 09:45:35;;;;;;;3.85;2.28;;;;;;;;;;5031671;28;20027;-83
2023/08/13 09:48:29;;;;;;;2.08;1.40;;;;;;;;;;5018975;28;20515;-85
2023/08/13 09:50:56;;;;;;;2.05;1.23;;;;;;;;;;5032095;28;20025;-86
2023/08/13 09:53:22;;;;;;;1.67;1.08;;;;;;;;;;5014675;28;20018;-84
2023/08/13 09:55:48;;;;;;;1.80;1.02;;;;;;;;;;5031625;28;20377;-85
2023/08/13 09:58:14;;;;;;;1.65;1.10;;;;;;;;;;5014835;28;20021;-84
2023/08/13 10:00:39;;;;;;;1.05;0.80;;;;;;;;;;5011474;28;20091;-84
2023/08/13 10:03:05;;;;;;;4.05;1.20;;;;;;;;;;5047989;28;20079;-84
2023/08/13 10:05:32;;;;;;;1.23;0.93;;;;;;;;;;5031524;28;20526;-84
2023/08/13 10:07:59;;;;;;;1.13;0.82;;;;;;;;;;5030445;28;20429;-85
2023/08/13 10:10:25;;;;;;;1.27;0.90;;;;;;;;;;5037135;28;20048;-84
2023/08/13 10:12:51;;;;;;;1.05;0.95;;;;;;;;;;5035348;28;20022;-85
2023/08/13 10:15:16;;;;;;;1.00;0.80;;;;;;;;;;5014643;28;20144;-84
2023/08/13 10:17:42;;;;;;;1.80;1.02;;;;;;;;;;5032040;28;20045;-86
2023/08/13 10:20:08;;;;;;;3.70;1.00;;;;;;;;;;5030811;28;20140;-84
2023/08/13 10:22:43;;;;;;;3.13;0.85;;;;;;;;;;5041129;28;20730;-84
2023/08/13 10:25:10;;;;;;;1.92;0.90;;;;;;;;;;5031294;28;20536;-85
2023/08/13 10:27:36;;;;;;;1.70;1.00;;;;;;;;;;5028856;28;20025;-84
2023/08/13 10:30:07;;;;;;;1.65;1.05;;;;;;;;;;5030302;28;20060;-85
2023/08/13 10:32:32;;;;;;;1.30;1.00;;;;;;;;;;5031475;28;20059;-84
2023/08/13 10:34:58;;;;;;;1.77;1.20;;;;;;;;;;5031518;28;20536;-85
2023/08/13 10:37:30;;;;;;;2.65;1.20;;;;;;;;;;5012421;28;20025;-84
2023/08/13 10:39:55;;;;;;;2.78;1.02;;;;;;;;;;5031802;28;20044;-85
2023/08/13 10:42:27;;;;;;;1.73;1.27;;;;;;;;;;5031149;28;20038;-84
2023/08/13 10:44:53;;;;;;;2.10;1.30;;;;;;;;;;5031636;28;20120;-84
2023/08/13 10:47:18;;;;;;;3.03;1.63;;;;;;;;;;5013550;28;20642;-85
2023/08/13 10:49:45;;;;;;;1.58;1.20;;;;;;;;;;5027418;28;20034;-85
2023/08/13 10:52:12;;;;;;;3.58;1.40;;;;;;;;;;5028777;28;20033;-84
2023/08/13 10:54:38;;;;;;;2.53;1.50;;;;;;;;;;5030923;28;20452;-84
2023/08/13 10:57:04;;;;;;;3.08;1.30;;;;;;;;;;5030430;28;20022;-84
2023/08/13 10:59:38;;;;;;;3.97;1.30;;;;;;;;;;5010517;28;20038;-84
2023/08/13 11:02:13;;;;;;;1.30;0.90;;;;;;;;;;5029325;28;20132;-84
2023/08/13 11:04:45;;;;;;;2.50;1.27;;;;;;;;;;5030741;28;20500;-85
2023/08/13 11:07:13;;;;;;;2.25;1.20;;;;;;;;;;5031343;28;20389;-85
2023/08/13 11:09:42;;;;;;;1.52;1.10;;;;;;;;;;5031418;28;20037;-84
2023/08/13 11:12:08;;;;;;;1.98;1.15;;;;;;;;;;5013752;28;20025;-85
2023/08/13 11:14:33;;;;;;;1.60;1.00;;;;;;;;;;5013191;28;20014;-84
2023/08/13 11:16:59;;;;;;;1.23;0.90;;;;;;;;;;5011275;28;20034;-84
2023/08/13 11:19:24;;;;;;;2.42;1.00;;;;;;;;;;5027992;28;20484;-83
2023/08/13 11:21:50;;;;;;;3.35;0.95;;;;;;;;;;5029808;28;20033;-85
2023/08/13 11:24:17;;;;;;;1.13;0.80;;;;;;;;;;5025886;28;20034;-85
2023/08/13 11:26:42;;;;;;;1.90;1.00;;;;;;;;;;5030110;28;20476;-86
2023/08/13 11:29:08;;;;;;;1.20;0.90;;;;;;;;;;5014094;28;20033;-86
2023/08/13 11:31:33;;;;;;;1.20;0.90;;;;;;;;;;5029979;28;20025;-85
2023/08/13 11:34:01;;;;;;;2.33;0.80;;;;;;;;;;5013178;28;20021;-86
2023/08/13 11:36:27;;;;;;;1.73;0.75;;;;;;;;;;5013593;28;20042;-84
2023/08/13 11:38:52;;;;;;;1.75;0.82;;;;;;;;;;5013137;28;20021;-84
2023/08/13 11:41:20;;;;;;;1.00;0.65;;;;;;;;;;5031448;28;20030;-84
2023/08/13 11:43:51;;;;;;;0.55;0.55;;;;;;;;;;5009859;28;20056;-85
2023/08/13 11:46:16;;;;;;;1.02;0.70;;;;;;;;;;5013081;28;20030;-85
2023/08/13 11:48:43;;;;;;;0.73;0.63;;;;;;;;;;5018345;28;20029;-85
2023/08/13 11:51:16;;;;;;;0.75;0.57;;;;;;;;;;5034583;28;20037;-82
2023/08/13 11:53:42;;;;;;;2.33;0.80;;;;;;;;;;5027093;28;20441;-84
2023/08/13 11:56:12;;;;;;;1.17;0.90;;;;;;;;;;5035559;28;20053;-84
2023/08/13 11:58:38;;;;;;;1.30;0.90;;;;;;;;;;5035608;28;20404;-85
2023/08/13 12:01:07;;;;;;;1.80;1.02;;;;;;;;;;5004820;28;20032;-86
2023/08/13 12:03:42;;;;;;;1.73;0.98;;;;;;;;;;5039992;28;20493;-86
2023/08/13 12:06:07;;;;;;;1.10;0.83;;;;;;;;;;5021820;28;20041;-87
2023/08/13 12:08:33;;;;;;;0.80;0.80;;;;;;;;;;5017197;28;20044;-85
2023/08/13 12:10:58;;;;;;;2.13;0.90;;;;;;;;;;5018187;28;20041;-78
2023/08/13 12:13:24;;;;;;;1.02;0.93;;;;;;;;;;5017965;28;20074;-82
2023/08/13 12:15:50;;;;;;;1.00;0.82;;;;;;;;;;5018347;28;20033;-81
2023/08/13 12:18:16;;;;;;;22.67;2.17;;;;;;;;;;5015390;28;20029;-79
2023/08/13 12:20:42;;;;;;;1.85;1.00;;;;;;;;;;5012353;28;20060;-77
2023/08/13 12:23:08;;;;;;;2.75;0.90;;;;;;;;;;5035636;28;20166;-78
2023/08/13 12:25:33;;;;;;;1.73;0.90;;;;;;;;;;5035817;28;20493;-78
2023/08/13 12:27:59;;;;;;;2.78;1.10;;;;;;;;;;5016807;28;20112;-78
2023/08/13 12:30:24;;;;;;;1.40;0.80;;;;;;;;;;5035522;28;20036;-79
2023/08/13 12:32:50;;;;;;;1.50;0.88;;;;;;;;;;5032523;28;20021;-78
2023/08/13 12:35:15;;;;;;;1.50;1.00;;;;;;;;;;5035745;28;20035;-78
2023/08/13 12:37:41;;;;;;;1.05;0.80;;;;;;;;;;5032961;28;20053;-77
2023/08/13 12:40:09;;;;;;;1.50;1.00;;;;;;;;;;5035576;28;20044;-77
2023/08/13 12:42:34;;;;;;;1.40;0.70;;;;;;;;;;5032846;28;20017;-78
2023/08/13 12:45:00;;;;;;;1.50;0.90;;;;;;;;;;5025404;28;20468;-77
2023/08/13 12:47:25;;;;;;;1.48;0.90;;;;;;;;;;5017638;28;20369;-79
2023/08/13 12:49:51;;;;;;;3.83;0.90;;;;;;;;;;5042133;28;20034;-79
2023/08/13 12:52:16;;;;;;;1.35;0.90;;;;;;;;;;5022999;28;20041;-76
2023/08/13 12:54:42;;;;;;;1.65;1.00;;;;;;;;;;5034715;28;20026;-76
2023/08/13 12:57:07;;;;;;;1.58;0.88;;;;;;;;;;5026756;28;20026;-78
2023/08/13 12:59:33;;;;;;;1.25;0.80;;;;;;;;;;5031174;28;20025;-76
2023/08/13 13:01:58;;;;;;;1.55;1.00;;;;;;;;;;5022869;28;20025;-77
2023/08/13 13:04:24;;;;;;;1.15;0.82;;;;;;;;;;5031328;28;20041;-78
2023/08/13 13:06:49;;;;;;;2.03;1.10;;;;;;;;;;5025031;28;20032;-78
2023/08/13 13:09:15;;;;;;;1.85;0.80;;;;;;;;;;5033941;28;20069;-77
2023/08/13 13:11:41;;;;;;;1.52;1.00;;;;;;;;;;5034722;28;20472;-76
2023/08/13 13:14:06;;;;;;;1.55;0.93;;;;;;;;;;5024289;28;20030;-79
2023/08/13 13:16:32;;;;;;;2.20;0.80;;;;;;;;;;5030636;28;20483;-77
2023/08/13 13:18:57;;;;;;;4.35;0.90;;;;;;;;;;5030446;28;20025;-77
2023/08/13 13:21:23;;;;;;;1.40;0.80;;;;;;;;;;5031828;28;20530;-79
2023/08/13 13:23:49;;;;;;;1.25;0.75;;;;;;;;;;5013869;28;20033;-77
2023/08/13 13:26:14;;;;;;;1.33;0.70;;;;;;;;;;5054455;28;20017;-77
2023/08/13 13:28:40;;;;;;;2.55;0.70;;;;;;;;;;5025851;28;20061;-78
2023/08/13 13:31:06;;;;;;;2.65;0.70;;;;;;;;;;5022054;28;20086;-77
2023/08/13 13:33:31;;;;;;;1.85;0.63;;;;;;;;;;5034562;28;20029;-77
2023/08/13 13:35:57;;;;;;;5.97;3.28;;;;;;;;;;5029345;28;20029;-78
2023/08/13 13:38:22;;;;;;;4.85;3.40;;;;;;;;;;5034195;28;20519;-77
2023/08/13 13:40:48;;;;;;;9.35;6.47;;;;;;;;;;5033240;28;20040;-78
2023/08/13 13:43:13;;;;;;;3.88;3.15;;;;;;;;;;5034380;28;20057;-78
2023/08/13 13:45:39;;;;;;;7.22;6.53;;;;;;;;;;5033322;28;20033;-77
2023/08/13 13:48:04;;;;;;;5.57;3.20;;;;;;;;;;5034170;28;20033;-78
2023/08/13 13:50:30;;;;;;;1.55;1.10;;;;;;;;;;5033743;28;20505;-77
2023/08/13 13:52:58;;;;;;;1.33;0.90;;;;;;;;;;5032755;28;20566;-78
2023/08/13 13:55:23;;;;;;;2.25;0.85;;;;;;;;;;5034191;28;20121;-78
2023/08/13 13:57:49;;;;;;;4.03;0.88;;;;;;;;;;5034361;28;20033;-78
2023/08/13 14:00:15;;;;;;;1.17;0.90;;;;;;;;;;5032770;28;20358;-78
2023/08/13 14:02:41;;;;;;;1.92;0.82;;;;;;;;;;5032305;28;20128;-78
2023/08/13 14:05:07;;;;;;;1.52;1.00;;;;;;;;;;5033218;28;20033;-78
2023/08/13 14:07:33;;;;;;;1.70;1.08;;;;;;;;;;5033415;28;20037;-77
2023/08/13 14:09:59;;;;;;;1.92;1.20;;;;;;;;;;5032402;28;20094;-79
2023/08/13 14:12:25;;;;;;;4.45;1.40;;;;;;;;;;5033811;28;20037;-77
2023/08/13 14:14:50;;;;;;;1.70;1.23;;;;;;;;;;5032556;28;20021;-78
2023/08/13 14:17:16;;;;;;;1.88;1.38;;;;;;;;;;5046135;28;20030;-78
2023/08/13 14:19:41;;;;;;;2.22;1.17;;;;;;;;;;5040441;28;20512;-76
2023/08/13 14:22:07;;;;;;;1.88;1.15;;;;;;;;;;5032346;28;20040;-78
2023/08/13 14:24:33;;;;;;;2.08;1.27;;;;;;;;;;5033378;28;20045;-78
2023/08/13 14:26:58;;;;;;;2.20;1.10;;;;;;;;;;5031418;28;20493;-79
2023/08/13 14:29:24;;;;;;;3.10;1.10;;;;;;;;;;5031984;28;20033;-78
2023/08/13 14:31:49;;;;;;;3.50;1.20;;;;;;;;;;5012433;28;20030;-78
2023/08/13 14:34:15;;;;;;;2.10;1.10;;;;;;;;;;5016124;28;20020;-78
2023/08/13 14:36:40;;;;;;;2.67;1.17;;;;;;;;;;5023238;28;20087;-78